sensor_id;sensor_type;location;lat;lon;timestamp;P1;durP1;ratioP1;P2;durP2;ratioP2
51616;SDS011;37697;52.588;13.394;2022-07-17T00:02:15;5.93;;;1.20;;
51616;SDS011;37697;52.588;13.394;2022-07-17T00:07:16;3.75;;;1.30;;
51616;SDS011;37697;52.588;13.394;2022-07-17T00:17:17;3.83;;;1.00;;
51616;SDS011;37697;52.588;13.394;2022-07-17T00:22:18;3.67;;;1.37;;
51616;SDS011;37697;52.588;13.394;2022-07-17T00:27:20;5.85;;;1.40;;
51616;SDS011;37697;52.588;13.394;2022-07-17T00:32:21;6.03;;;1.70;;
51616;SDS011;37697;52.588;13.394;2022-07-17T00:37:24;3.02;;;1.17;;
51616;SDS011;37697;52.588;13.394;2022-07-17T00:42:25;5.13;;;1.33;;
51616;SDS011;37697;52.588;13.394;2022-07-17T00:47:25;3.93;;;1.17;;
51616;SDS011;37697;52.588;13.394;2022-07-17T00:52:26;3.57;;;0.90;;
51616;SDS011;37697;52.588;13.394;2022-07-17T00:57:27;3.00;;;1.20;;
51616;SDS011;37697;52.588;13.394;2022-07-17T01:02:29;3.40;;;1.20;;
51616;SDS011;37697;52.588;13.394;2022-07-17T01:07:29;3.53;;;1.40;;
51616;SDS011;37697;52.588;13.394;2022-07-17T01:12:30;3.37;;;1.10;;
51616;SDS011;37697;52.588;13.394;2022-07-17T01:17:33;4.65;;;1.00;;
51616;SDS011;37697;52.588;13.394;2022-07-17T01:22:46;4.15;;;1.00;;
51616;SDS011;37697;52.588;13.394;2022-07-17T01:27:46;5.20;;;1.03;;
51616;SDS011;37697;52.588;13.394;2022-07-17T01:32:47;4.17;;;1.05;;
51616;SDS011;37697;52.588;13.394;2022-07-17T01:37:48;4.30;;;1.00;;
51616;SDS011;37697;52.588;13.394;2022-07-17T01:42:49;6.83;;;1.27;;
51616;SDS011;37697;52.588;13.394;2022-07-17T01:47:50;3.70;;;1.15;;
51616;SDS011;37697;52.588;13.394;2022-07-17T01:52:51;6.50;;;1.50;;
51616;SDS011;37697;52.588;13.394;2022-07-17T01:57:51;4.55;;;1.30;;
51616;SDS011;37697;52.588;13.394;2022-07-17T02:02:53;4.25;;;1.12;;
51616;SDS011;37697;52.588;13.394;2022-07-17T02:07:53;4.20;;;1.20;;
51616;SDS011;37697;52.588;13.394;2022-07-17T02:12:54;6.53;;;1.40;;
51616;SDS011;37697;52.588;13.394;2022-07-17T02:17:55;7.10;;;1.20;;
51616;SDS011;37697;52.588;13.394;2022-07-17T02:27:57;3.50;;;1.13;;
51616;SDS011;37697;52.588;13.394;2022-07-17T02:32:58;5.42;;;1.15;;
51616;SDS011;37697;52.588;13.394;2022-07-17T02:37:59;3.47;;;1.10;;
51616;SDS011;37697;52.588;13.394;2022-07-17T02:43:00;5.33;;;1.20;;
51616;SDS011;37697;52.588;13.394;2022-07-17T02:48:01;5.17;;;1.70;;
51616;SDS011;37697;52.588;13.394;2022-07-17T02:53:01;6.83;;;1.70;;
51616;SDS011;37697;52.588;13.394;2022-07-17T02:58:02;8.40;;;1.32;;
51616;SDS011;37697;52.588;13.394;2022-07-17T03:03:04;6.65;;;1.20;;
51616;SDS011;37697;52.588;13.394;2022-07-17T03:08:04;4.87;;;1.10;;
51616;SDS011;37697;52.588;13.394;2022-07-17T03:13:05;7.80;;;1.20;;
51616;SDS011;37697;52.588;13.394;2022-07-17T03:18:06;3.90;;;1.10;;
51616;SDS011;37697;52.588;13.394;2022-07-17T03:23:07;4.58;;;1.40;;
51616;SDS011;37697;52.588;13.394;2022-07-17T03:28:08;4.30;;;0.95;;
51616;SDS011;37697;52.588;13.394;2022-07-17T03:33:09;8.33;;;2.10;;
51616;SDS011;37697;52.588;13.394;2022-07-17T03:38:09;5.03;;;1.20;;
51616;SDS011;37697;52.588;13.394;2022-07-17T03:43:10;4.47;;;1.10;;
51616;SDS011;37697;52.588;13.394;2022-07-17T03:48:11;4.15;;;1.07;;
51616;SDS011;37697;52.588;13.394;2022-07-17T03:53:11;3.90;;;1.30;;
51616;SDS011;37697;52.588;13.394;2022-07-17T03:58:12;3.12;;;1.05;;
51616;SDS011;37697;52.588;13.394;2022-07-17T04:03:13;6.27;;;1.30;;
51616;SDS011;37697;52.588;13.394;2022-07-17T04:08:13;6.00;;;1.47;;
51616;SDS011;37697;52.588;13.394;2022-07-17T04:13:15;2.83;;;1.07;;
51616;SDS011;37697;52.588;13.394;2022-07-17T04:18:16;5.90;;;1.70;;
51616;SDS011;37697;52.588;13.394;2022-07-17T04:23:17;4.10;;;1.17;;
51616;SDS011;37697;52.588;13.394;2022-07-17T04:28:18;6.47;;;1.33;;
51616;SDS011;37697;52.588;13.394;2022-07-17T04:33:19;5.22;;;1.20;;
51616;SDS011;37697;52.588;13.394;2022-07-17T04:38:19;3.63;;;1.00;;
51616;SDS011;37697;52.588;13.394;2022-07-17T04:43:20;6.73;;;1.63;;
51616;SDS011;37697;52.588;13.394;2022-07-17T04:48:21;4.77;;;1.30;;
51616;SDS011;37697;52.588;13.394;2022-07-17T04:53:22;4.23;;;1.20;;
51616;SDS011;37697;52.588;13.394;2022-07-17T04:58:22;6.23;;;1.37;;
51616;SDS011;37697;52.588;13.394;2022-07-17T05:03:23;2.87;;;1.00;;
51616;SDS011;37697;52.588;13.394;2022-07-17T05:08:24;4.80;;;1.10;;
51616;SDS011;37697;52.588;13.394;2022-07-17T05:13:24;5.15;;;1.20;;
51616;SDS011;37697;52.588;13.394;2022-07-17T05:18:25;6.33;;;1.22;;
51616;SDS011;37697;52.588;13.394;2022-07-17T05:23:26;3.75;;;1.40;;
51616;SDS011;37697;52.588;13.394;2022-07-17T05:28:27;5.08;;;1.25;;
51616;SDS011;37697;52.588;13.394;2022-07-17T05:33:28;6.37;;;1.47;;
51616;SDS011;37697;52.588;13.394;2022-07-17T05:43:29;6.90;;;1.42;;
51616;SDS011;37697;52.588;13.394;2022-07-17T05:48:30;4.58;;;1.20;;
51616;SDS011;37697;52.588;13.394;2022-07-17T05:53:31;3.80;;;1.40;;
51616;SDS011;37697;52.588;13.394;2022-07-17T05:58:32;8.68;;;1.20;;
51616;SDS011;37697;52.588;13.394;2022-07-17T06:03:33;3.77;;;1.15;;
51616;SDS011;37697;52.588;13.394;2022-07-17T06:08:33;5.87;;;1.37;;
51616;SDS011;37697;52.588;13.394;2022-07-17T06:13:34;7.43;;;1.57;;
51616;SDS011;37697;52.588;13.394;2022-07-17T06:23:35;6.05;;;1.57;;
51616;SDS011;37697;52.588;13.394;2022-07-17T06:28:36;5.25;;;1.65;;
51616;SDS011;37697;52.588;13.394;2022-07-17T06:33:37;4.70;;;1.42;;
51616;SDS011;37697;52.588;13.394;2022-07-17T06:38:38;5.83;;;1.30;;
51616;SDS011;37697;52.588;13.394;2022-07-17T06:43:39;3.87;;;1.20;;
51616;SDS011;37697;52.588;13.394;2022-07-17T06:48:39;4.97;;;1.27;;
51616;SDS011;37697;52.588;13.394;2022-07-17T06:53:40;3.98;;;1.32;;
51616;SDS011;37697;52.588;13.394;2022-07-17T06:58:40;4.75;;;1.40;;
51616;SDS011;37697;52.588;13.394;2022-07-17T07:03:41;3.47;;;0.82;;
51616;SDS011;37697;52.588;13.394;2022-07-17T07:08:42;6.78;;;1.02;;
51616;SDS011;37697;52.588;13.394;2022-07-17T07:13:42;4.20;;;1.40;;
51616;SDS011;37697;52.588;13.394;2022-07-17T07:18:43;5.58;;;1.40;;
51616;SDS011;37697;52.588;13.394;2022-07-17T07:23:44;5.50;;;1.07;;
51616;SDS011;37697;52.588;13.394;2022-07-17T07:28:45;6.22;;;1.05;;
51616;SDS011;37697;52.588;13.394;2022-07-17T07:33:45;4.12;;;1.10;;
51616;SDS011;37697;52.588;13.394;2022-07-17T07:38:46;3.55;;;1.00;;
51616;SDS011;37697;52.588;13.394;2022-07-17T07:43:47;3.47;;;1.10;;
51616;SDS011;37697;52.588;13.394;2022-07-17T07:53:50;7.60;;;1.45;;
51616;SDS011;37697;52.588;13.394;2022-07-17T07:58:51;5.62;;;0.98;;
51616;SDS011;37697;52.588;13.394;2022-07-17T08:03:51;2.92;;;0.98;;
51616;SDS011;37697;52.588;13.394;2022-07-17T08:08:53;3.52;;;1.02;;
51616;SDS011;37697;52.588;13.394;2022-07-17T08:13:53;3.95;;;1.10;;
51616;SDS011;37697;52.588;13.394;2022-07-17T08:18:54;5.58;;;1.20;;
51616;SDS011;37697;52.588;13.394;2022-07-17T08:23:55;4.72;;;1.17;;
51616;SDS011;37697;52.588;13.394;2022-07-17T08:28:55;5.97;;;1.20;;
51616;SDS011;37697;52.588;13.394;2022-07-17T08:33:56;4.50;;;1.30;;
51616;SDS011;37697;52.588;13.394;2022-07-17T08:38:57;8.05;;;1.50;;
51616;SDS011;37697;52.588;13.394;2022-07-17T08:43:58;6.60;;;1.67;;
51616;SDS011;37697;52.588;13.394;2022-07-17T08:48:59;3.42;;;1.17;;
51616;SDS011;37697;52.588;13.394;2022-07-17T08:53:59;3.90;;;1.17;;
51616;SDS011;37697;52.588;13.394;2022-07-17T08:59:01;3.98;;;1.00;;
51616;SDS011;37697;52.588;13.394;2022-07-17T09:04:03;4.37;;;1.10;;
51616;SDS011;37697;52.588;13.394;2022-07-17T09:09:10;6.08;;;1.77;;
51616;SDS011;37697;52.588;13.394;2022-07-17T09:14:14;5.83;;;1.17;;
51616;SDS011;37697;52.588;13.394;2022-07-17T09:19:29;4.00;;;1.25;;
51616;SDS011;37697;52.588;13.394;2022-07-17T09:24:43;5.15;;;1.40;;
51616;SDS011;37697;52.588;13.394;2022-07-17T09:29:50;4.28;;;1.02;;
51616;SDS011;37697;52.588;13.394;2022-07-17T09:34:57;3.25;;;1.37;;
51616;SDS011;37697;52.588;13.394;2022-07-17T09:39:59;5.47;;;1.10;;
51616;SDS011;37697;52.588;13.394;2022-07-17T09:45:05;8.68;;;1.95;;
51616;SDS011;37697;52.588;13.394;2022-07-17T09:50:09;4.35;;;1.40;;
51616;SDS011;37697;52.588;13.394;2022-07-17T09:55:09;3.85;;;1.47;;
51616;SDS011;37697;52.588;13.394;2022-07-17T10:00:11;4.45;;;1.10;;
51616;SDS011;37697;52.588;13.394;2022-07-17T10:05:13;7.10;;;1.65;;
51616;SDS011;37697;52.588;13.394;2022-07-17T10:10:16;5.95;;;1.37;;
51616;SDS011;37697;52.588;13.394;2022-07-17T10:15:22;4.40;;;1.05;;
51616;SDS011;37697;52.588;13.394;2022-07-17T10:20:25;5.50;;;1.20;;
51616;SDS011;37697;52.588;13.394;2022-07-17T10:25:26;4.72;;;1.30;;
51616;SDS011;37697;52.588;13.394;2022-07-17T10:30:27;5.65;;;1.35;;
51616;SDS011;37697;52.588;13.394;2022-07-17T10:35:41;3.87;;;1.00;;
51616;SDS011;37697;52.588;13.394;2022-07-17T10:40:58;3.52;;;1.00;;
51616;SDS011;37697;52.588;13.394;2022-07-17T10:46:01;5.05;;;1.20;;
51616;SDS011;37697;52.588;13.394;2022-07-17T10:51:01;5.55;;;1.20;;
51616;SDS011;37697;52.588;13.394;2022-07-17T10:56:04;3.67;;;1.10;;
51616;SDS011;37697;52.588;13.394;2022-07-17T11:01:09;5.10;;;1.27;;
51616;SDS011;37697;52.588;13.394;2022-07-17T11:06:28;3.85;;;1.20;;
51616;SDS011;37697;52.588;13.394;2022-07-17T11:21:57;6.10;;;1.17;;
51616;SDS011;37697;52.588;13.394;2022-07-17T11:27:00;2.80;;;1.20;;
51616;SDS011;37697;52.588;13.394;2022-07-17T11:32:01;4.55;;;1.27;;
51616;SDS011;37697;52.588;13.394;2022-07-17T11:37:02;5.55;;;1.40;;
51616;SDS011;37697;52.588;13.394;2022-07-17T11:42:10;5.65;;;1.30;;
51616;SDS011;37697;52.588;13.394;2022-07-17T11:47:19;4.37;;;1.30;;
51616;SDS011;37697;52.588;13.394;2022-07-17T11:52:23;4.35;;;1.17;;
51616;SDS011;37697;52.588;13.394;2022-07-17T11:57:26;6.20;;;1.05;;
51616;SDS011;37697;52.588;13.394;2022-07-17T12:02:28;4.40;;;1.30;;
51616;SDS011;37697;52.588;13.394;2022-07-17T12:07:45;6.85;;;1.30;;
51616;SDS011;37697;52.588;13.394;2022-07-17T12:13:00;4.47;;;1.30;;
51616;SDS011;37697;52.588;13.394;2022-07-17T12:18:05;7.10;;;1.20;;
51616;SDS011;37697;52.588;13.394;2022-07-17T12:23:25;4.65;;;1.32;;
51616;SDS011;37697;52.588;13.394;2022-07-17T12:28:31;4.95;;;1.40;;
51616;SDS011;37697;52.588;13.394;2022-07-17T12:33:33;4.58;;;1.07;;
51616;SDS011;37697;52.588;13.394;2022-07-17T12:38:34;6.08;;;1.10;;
51616;SDS011;37697;52.588;13.394;2022-07-17T12:43:34;2.52;;;1.05;;
51616;SDS011;37697;52.588;13.394;2022-07-17T12:48:35;3.67;;;1.40;;
51616;SDS011;37697;52.588;13.394;2022-07-17T12:53:42;3.45;;;0.90;;
51616;SDS011;37697;52.588;13.394;2022-07-17T12:58:44;3.17;;;1.10;;
51616;SDS011;37697;52.588;13.394;2022-07-17T13:03:47;5.97;;;1.27;;
51616;SDS011;37697;52.588;13.394;2022-07-17T13:08:47;4.78;;;1.20;;
51616;SDS011;37697;52.588;13.394;2022-07-17T13:13:49;2.85;;;1.15;;
51616;SDS011;37697;52.588;13.394;2022-07-17T13:18:50;3.17;;;1.22;;
51616;SDS011;37697;52.588;13.394;2022-07-17T13:23:50;3.70;;;1.12;;
51616;SDS011;37697;52.588;13.394;2022-07-17T13:28:51;4.20;;;1.40;;
51616;SDS011;37697;52.588;13.394;2022-07-17T13:33:51;3.42;;;1.10;;
51616;SDS011;37697;52.588;13.394;2022-07-17T13:38:52;6.00;;;1.12;;
51616;SDS011;37697;52.588;13.394;2022-07-17T13:43:53;3.25;;;1.07;;
51616;SDS011;37697;52.588;13.394;2022-07-17T13:48:53;3.72;;;1.20;;
51616;SDS011;37697;52.588;13.394;2022-07-17T13:53:54;3.17;;;1.20;;
51616;SDS011;37697;52.588;13.394;2022-07-17T13:58:55;3.27;;;0.95;;
51616;SDS011;37697;52.588;13.394;2022-07-17T14:03:55;3.20;;;1.20;;
51616;SDS011;37697;52.588;13.394;2022-07-17T14:08:56;2.77;;;0.90;;
51616;SDS011;37697;52.588;13.394;2022-07-17T14:13:57;3.98;;;1.00;;
51616;SDS011;37697;52.588;13.394;2022-07-17T14:18:57;4.00;;;1.10;;
51616;SDS011;37697;52.588;13.394;2022-07-17T14:23:58;2.60;;;0.90;;
51616;SDS011;37697;52.588;13.394;2022-07-17T14:28:59;5.00;;;1.10;;
51616;SDS011;37697;52.588;13.394;2022-07-17T14:34:01;5.30;;;1.10;;
51616;SDS011;37697;52.588;13.394;2022-07-17T14:39:02;2.58;;;1.00;;
51616;SDS011;37697;52.588;13.394;2022-07-17T14:44:03;3.50;;;1.20;;
51616;SDS011;37697;52.588;13.394;2022-07-17T14:49:04;5.33;;;1.17;;
51616;SDS011;37697;52.588;13.394;2022-07-17T14:54:04;5.00;;;1.30;;
51616;SDS011;37697;52.588;13.394;2022-07-17T14:59:05;4.00;;;1.15;;
51616;SDS011;37697;52.588;13.394;2022-07-17T15:04:06;4.83;;;1.20;;
51616;SDS011;37697;52.588;13.394;2022-07-17T15:09:07;6.47;;;1.37;;
51616;SDS011;37697;52.588;13.394;2022-07-17T15:14:09;3.60;;;1.10;;
51616;SDS011;37697;52.588;13.394;2022-07-17T15:19:09;7.03;;;1.22;;
51616;SDS011;37697;52.588;13.394;2022-07-17T15:24:10;7.25;;;1.27;;
51616;SDS011;37697;52.588;13.394;2022-07-17T15:29:11;3.02;;;1.00;;
51616;SDS011;37697;52.588;13.394;2022-07-17T15:34:12;3.13;;;0.87;;
51616;SDS011;37697;52.588;13.394;2022-07-17T15:39:12;5.00;;;1.20;;
51616;SDS011;37697;52.588;13.394;2022-07-17T15:44:14;3.10;;;1.10;;
51616;SDS011;37697;52.588;13.394;2022-07-17T15:49:16;2.33;;;0.93;;
51616;SDS011;37697;52.588;13.394;2022-07-17T15:54:18;3.62;;;1.07;;
51616;SDS011;37697;52.588;13.394;2022-07-17T15:59:19;4.17;;;0.85;;
51616;SDS011;37697;52.588;13.394;2022-07-17T16:04:19;5.75;;;0.95;;
51616;SDS011;37697;52.588;13.394;2022-07-17T16:14:22;3.42;;;1.17;;
51616;SDS011;37697;52.588;13.394;2022-07-17T16:19:23;6.00;;;1.10;;
51616;SDS011;37697;52.588;13.394;2022-07-17T16:24:24;3.25;;;1.15;;
51616;SDS011;37697;52.588;13.394;2022-07-17T16:29:25;3.87;;;0.90;;
51616;SDS011;37697;52.588;13.394;2022-07-17T16:34:25;4.17;;;1.00;;
51616;SDS011;37697;52.588;13.394;2022-07-17T16:39:26;3.50;;;0.90;;
51616;SDS011;37697;52.588;13.394;2022-07-17T16:44:27;2.85;;;1.05;;
51616;SDS011;37697;52.588;13.394;2022-07-17T16:49:27;1.77;;;0.98;;
51616;SDS011;37697;52.588;13.394;2022-07-17T16:54:28;3.40;;;1.10;;
51616;SDS011;37697;52.588;13.394;2022-07-17T16:59:29;2.33;;;0.80;;
51616;SDS011;37697;52.588;13.394;2022-07-17T17:04:30;3.50;;;1.30;;
51616;SDS011;37697;52.588;13.394;2022-07-17T17:09:31;5.55;;;1.10;;
51616;SDS011;37697;52.588;13.394;2022-07-17T17:14:32;1.72;;;0.72;;
51616;SDS011;37697;52.588;13.394;2022-07-17T17:19:33;3.80;;;0.93;;
51616;SDS011;37697;52.588;13.394;2022-07-17T17:24:34;5.37;;;1.20;;
51616;SDS011;37697;52.588;13.394;2022-07-17T17:29:35;3.97;;;0.80;;
51616;SDS011;37697;52.588;13.394;2022-07-17T17:34:36;3.87;;;0.90;;
51616;SDS011;37697;52.588;13.394;2022-07-17T17:39:37;2.22;;;0.80;;
51616;SDS011;37697;52.588;13.394;2022-07-17T17:44:37;2.53;;;1.00;;
51616;SDS011;37697;52.588;13.394;2022-07-17T17:49:38;4.10;;;0.95;;
51616;SDS011;37697;52.588;13.394;2022-07-17T17:54:39;3.75;;;1.00;;
51616;SDS011;37697;52.588;13.394;2022-07-17T17:59:39;3.72;;;1.10;;
51616;SDS011;37697;52.588;13.394;2022-07-17T18:04:40;4.40;;;1.50;;
51616;SDS011;37697;52.588;13.394;2022-07-17T18:09:41;3.52;;;1.00;;
51616;SDS011;37697;52.588;13.394;2022-07-17T18:14:42;2.95;;;1.10;;
51616;SDS011;37697;52.588;13.394;2022-07-17T18:19:43;2.60;;;0.93;;
51616;SDS011;37697;52.588;13.394;2022-07-17T18:24:44;4.25;;;1.32;;
51616;SDS011;37697;52.588;13.394;2022-07-17T18:29:45;5.20;;;1.55;;
51616;SDS011;37697;52.588;13.394;2022-07-17T18:34:46;4.08;;;1.00;;
51616;SDS011;37697;52.588;13.394;2022-07-17T18:39:47;2.60;;;1.07;;
51616;SDS011;37697;52.588;13.394;2022-07-17T18:44:48;2.95;;;0.90;;
51616;SDS011;37697;52.588;13.394;2022-07-17T18:54:51;2.92;;;0.90;;
51616;SDS011;37697;52.588;13.394;2022-07-17T18:59:52;3.25;;;1.12;;
51616;SDS011;37697;52.588;13.394;2022-07-17T19:04:53;3.35;;;1.07;;
51616;SDS011;37697;52.588;13.394;2022-07-17T19:14:54;2.72;;;1.20;;
51616;SDS011;37697;52.588;13.394;2022-07-17T19:19:55;4.25;;;1.37;;
51616;SDS011;37697;52.588;13.394;2022-07-17T19:24:57;3.15;;;0.90;;
51616;SDS011;37697;52.588;13.394;2022-07-17T19:29:58;2.33;;;0.93;;
51616;SDS011;37697;52.588;13.394;2022-07-17T19:34:59;3.92;;;1.10;;
51616;SDS011;37697;52.588;13.394;2022-07-17T19:39:59;2.02;;;1.10;;
51616;SDS011;37697;52.588;13.394;2022-07-17T19:45:02;2.58;;;1.20;;
51616;SDS011;37697;52.588;13.394;2022-07-17T19:50:04;5.17;;;1.30;;
51616;SDS011;37697;52.588;13.394;2022-07-17T19:55:06;4.10;;;1.10;;
51616;SDS011;37697;52.588;13.394;2022-07-17T20:00:08;4.00;;;1.30;;
51616;SDS011;37697;52.588;13.394;2022-07-17T20:05:10;3.45;;;1.20;;
51616;SDS011;37697;52.588;13.394;2022-07-17T20:10:11;2.70;;;1.15;;
51616;SDS011;37697;52.588;13.394;2022-07-17T20:15:11;5.72;;;1.50;;
51616;SDS011;37697;52.588;13.394;2022-07-17T20:20:12;4.65;;;1.52;;
51616;SDS011;37697;52.588;13.394;2022-07-17T20:25:13;8.33;;;1.45;;
51616;SDS011;37697;52.588;13.394;2022-07-17T20:30:14;3.57;;;1.33;;
51616;SDS011;37697;52.588;13.394;2022-07-17T20:40:15;4.70;;;1.60;;
51616;SDS011;37697;52.588;13.394;2022-07-17T20:45:17;4.17;;;1.98;;
51616;SDS011;37697;52.588;13.394;2022-07-17T20:50:18;5.15;;;1.62;;
51616;SDS011;37697;52.588;13.394;2022-07-17T20:55:19;2.92;;;1.47;;
51616;SDS011;37697;52.588;13.394;2022-07-17T21:00:20;4.28;;;1.80;;
51616;SDS011;37697;52.588;13.394;2022-07-17T21:05:22;3.02;;;1.60;;
51616;SDS011;37697;52.588;13.394;2022-07-17T21:10:23;2.80;;;1.62;;
51616;SDS011;37697;52.588;13.394;2022-07-17T21:15:25;4.22;;;2.00;;
51616;SDS011;37697;52.588;13.394;2022-07-17T21:20:26;3.75;;;1.60;;
51616;SDS011;37697;52.588;13.394;2022-07-17T21:25:27;3.95;;;1.75;;
51616;SDS011;37697;52.588;13.394;2022-07-17T21:30:27;3.70;;;1.77;;
51616;SDS011;37697;52.588;13.394;2022-07-17T21:35:28;3.83;;;1.95;;
51616;SDS011;37697;52.588;13.394;2022-07-17T21:40:29;4.95;;;1.87;;
51616;SDS011;37697;52.588;13.394;2022-07-17T21:45:31;4.50;;;2.20;;
51616;SDS011;37697;52.588;13.394;2022-07-17T21:50:31;2.85;;;1.62;;
51616;SDS011;37697;52.588;13.394;2022-07-17T21:55:32;4.50;;;1.92;;
51616;SDS011;37697;52.588;13.394;2022-07-17T22:00:33;4.62;;;2.08;;
51616;SDS011;37697;52.588;13.394;2022-07-17T22:05:34;5.45;;;1.90;;
51616;SDS011;37697;52.588;13.394;2022-07-17T22:15:36;3.85;;;2.17;;
51616;SDS011;37697;52.588;13.394;2022-07-17T22:20:37;3.87;;;2.08;;
51616;SDS011;37697;52.588;13.394;2022-07-17T22:25:39;4.90;;;2.27;;
51616;SDS011;37697;52.588;13.394;2022-07-17T22:30:40;4.05;;;2.33;;
51616;SDS011;37697;52.588;13.394;2022-07-17T22:35:41;4.85;;;2.20;;
51616;SDS011;37697;52.588;13.394;2022-07-17T22:45:42;4.08;;;1.90;;
51616;SDS011;37697;52.588;13.394;2022-07-17T22:50:43;4.05;;;2.58;;
51616;SDS011;37697;52.588;13.394;2022-07-17T22:55:44;3.60;;;2.30;;
51616;SDS011;37697;52.588;13.394;2022-07-17T23:00:45;4.03;;;2.02;;
51616;SDS011;37697;52.588;13.394;2022-07-17T23:05:46;4.60;;;2.33;;
51616;SDS011;37697;52.588;13.394;2022-07-17T23:10:47;4.42;;;2.47;;
51616;SDS011;37697;52.588;13.394;2022-07-17T23:15:48;4.58;;;2.60;;
51616;SDS011;37697;52.588;13.394;2022-07-17T23:20:49;4.45;;;2.80;;
51616;SDS011;37697;52.588;13.394;2022-07-17T23:25:49;3.45;;;2.30;;
51616;SDS011;37697;52.588;13.394;2022-07-17T23:35:50;3.92;;;2.00;;
51616;SDS011;37697;52.588;13.394;2022-07-17T23:40:51;4.58;;;2.10;;
51616;SDS011;37697;52.588;13.394;2022-07-17T23:55:55;5.72;;;2.72;;
